Time;durP1;ratioP1;P1;durP2;ratioP2;P2;SDS_P1;SDS_P2;PMS_P1;PMS_P2;Temp;Humidity;BMP_temperature;BMP_pressure;BME280_temperature;BME280_humidity;BME280_pressure;Samples;Min_cycle;Max_cycle;Signal;HPM_P1;HPM_P2
2022/04/13 00:02:04;;;;;;;1.35;1.25;;;;;;;5.43;39.26;98821.53;5071316;28;20035;-61
2022/04/13 00:04:30;;;;;;;1.10;1.05;;;;;;;5.36;39.38;98818.81;5072950;28;20036;-59
2022/04/13 00:06:56;;;;;;;1.65;1.00;;;;;;;5.36;39.42;98848.75;5074332;28;20031;-59
2022/04/13 00:09:21;;;;;;;0.77;0.77;;;;;;;5.37;39.23;98849.59;5074394;28;20095;-60
2022/04/13 00:11:47;;;;;;;0.60;0.60;;;;;;;5.39;39.25;98856.53;5074249;28;20127;-59
2022/04/13 00:14:13;;;;;;;1.40;1.02;;;;;;;5.39;39.24;98861.13;5074410;28;20028;-60
2022/04/13 00:16:39;;;;;;;4.72;1.27;;;;;;;5.39;39.25;98861.13;5073137;28;20082;-59
2022/04/13 00:19:05;;;;;;;0.60;0.60;;;;;;;5.41;39.28;98864.50;5074701;28;20485;-59
2022/04/13 00:21:31;;;;;;;1.42;0.93;;;;;;;5.36;39.36;98862.38;5074203;28;20066;-59
2022/04/13 00:23:56;;;;;;;0.75;0.60;;;;;;;5.37;39.38;98849.59;5074257;28;20034;-59
2022/04/13 00:26:23;;;;;;;1.00;0.90;;;;;;;5.41;39.27;98859.03;5074144;28;20403;-60
2022/04/13 00:28:49;;;;;;;0.40;0.40;;;;;;;5.42;39.36;98858.84;5074359;28;20443;-61
2022/04/13 00:31:14;;;;;;;1.67;0.93;;;;;;;5.44;39.23;98858.63;5074157;28;20074;-60
2022/04/13 00:33:40;;;;;;;0.77;0.77;;;;;;;5.46;39.23;98862.00;5074234;28;20486;-60
2022/04/13 00:36:06;;;;;;;1.85;1.13;;;;;;;5.49;39.12;98864.34;5073959;28;20115;-62
2022/04/13 00:38:32;;;;;;;1.35;1.25;;;;;;;5.51;39.24;98858.69;5074020;28;20025;-62
2022/04/13 00:40:59;;;;;;;2.33;1.67;;;;;;;5.53;39.28;98857.44;5074216;28;20064;-61
2022/04/13 00:43:25;;;;;;;0.80;0.80;;;;;;;5.56;39.19;98850.75;5074149;28;20037;-60
2022/04/13 00:45:52;;;;;;;2.15;1.95;;;;;;;5.54;39.20;98837.31;5074177;28;20394;-60
2022/04/13 00:48:42;;;;;;;4.18;1.33;;;;;;;5.65;39.00;98848.69;5073824;28;20024;-60
2022/04/13 00:51:08;;;;;;;2.10;1.45;;;;;;;5.64;38.95;98842.41;5073896;28;20068;-60
2022/04/13 00:53:35;;;;;;;1.40;1.30;;;;;;;5.66;38.97;98834.03;5073837;28;20465;-61
2022/04/13 00:56:04;;;;;;;1.20;0.90;;;;;;;5.65;39.26;98837.78;5073885;28;20146;-61
2022/04/13 00:58:33;;;;;;;0.88;0.88;;;;;;;5.61;39.29;98837.38;5073782;28;20043;-59
2022/04/13 01:01:01;;;;;;;1.88;1.30;;;;;;;5.57;39.37;98827.91;5073831;28;20028;-59
2022/04/13 01:03:27;;;;;;;1.67;1.38;;;;;;;5.53;39.52;98843.81;5073479;28;20033;-60
2022/04/13 01:05:53;;;;;;;1.38;0.82;;;;;;;5.49;39.33;98844.41;5073203;28;20040;-60
2022/04/13 01:08:20;;;;;;;1.95;1.50;;;;;;;5.43;39.43;98832.44;5073646;28;20055;-59
2022/04/13 01:10:48;;;;;;;1.83;1.50;;;;;;;5.36;39.61;98829.69;5073633;28;20044;-60
2022/04/13 01:13:16;;;;;;;1.40;1.30;;;;;;;5.26;39.74;98834.66;5073411;28;20098;-61
2022/04/13 01:15:42;;;;;;;1.20;1.10;;;;;;;5.24;39.90;98832.13;5073390;28;20032;-60
2022/04/13 01:18:08;;;;;;;0.55;0.55;;;;;;;5.27;39.78;98836.34;5073378;28;20036;-60
2022/04/13 01:20:35;;;;;;;0.80;0.80;;;;;;;5.32;39.66;98827.56;5072999;28;20448;-61
2022/04/13 01:23:02;;;;;;;2.65;1.50;;;;;;;5.37;39.47;98833.25;5073239;28;20032;-62
2022/04/13 01:25:30;;;;;;;0.50;0.50;;;;;;;5.43;39.50;98841.47;5073202;28;20136;-61
2022/04/13 01:27:56;;;;;;;1.23;1.13;;;;;;;5.52;39.41;98844.88;5073317;28;20032;-60
2022/04/13 01:30:26;;;;;;;1.63;1.27;;;;;;;5.66;39.21;98839.50;5073376;28;20043;-60
2022/04/13 01:32:52;;;;;;;1.30;1.20;;;;;;;5.83;38.91;98840.81;5072875;28;20040;-60
2022/04/13 01:35:18;;;;;;;0.85;0.70;;;;;;;6.03;38.81;98840.06;5072644;28;20028;-61
2022/04/13 01:37:44;;;;;;;1.30;1.20;;;;;;;6.18;38.58;98835.28;5083669;28;20036;-60
2022/04/13 01:40:10;;;;;;;0.75;0.60;;;;;;;6.28;38.44;98833.00;5072307;28;20502;-61
2022/04/13 01:42:37;;;;;;;1.48;1.17;;;;;;;6.47;38.30;98835.97;5075239;28;20032;-61
2022/04/13 01:45:04;;;;;;;0.50;0.50;;;;;;;6.65;38.08;98838.94;5082696;28;20353;-61
2022/04/13 01:47:29;;;;;;;1.35;1.20;;;;;;;6.85;37.85;98838.09;5073613;28;20024;-62
2022/04/13 01:49:55;;;;;;;1.52;1.42;;;;;;;7.04;37.76;98847.34;5073707;28;20047;-62
2022/04/13 01:52:21;;;;;;;0.88;0.88;;;;;;;7.19;37.53;98844.38;5090898;28;20401;-61
2022/04/13 01:54:47;;;;;;;1.25;1.15;;;;;;;7.32;37.42;98844.38;5091139;28;20040;-60
2022/04/13 01:57:13;;;;;;;1.33;1.17;;;;;;;7.45;37.32;98831.72;5092524;28;20513;-61
2022/04/13 01:59:39;;;;;;;2.80;2.00;;;;;;;7.45;37.42;98837.19;5092392;28;20452;-62
2022/04/13 02:02:05;;;;;;;1.05;0.88;;;;;;;7.29;37.77;98836.59;5090896;28;20040;-59
2022/04/13 02:04:31;;;;;;;1.92;1.38;;;;;;;7.07;38.14;98836.00;5085336;28;20032;-61
2022/04/13 02:06:58;;;;;;;1.33;1.20;;;;;;;6.80;38.65;98832.44;5073295;28;20036;-67
2022/04/13 02:09:23;;;;;;;3.60;1.38;;;;;;;6.60;39.13;98829.72;5073296;28;20031;-63
2022/04/13 02:11:49;;;;;;;2.83;1.63;;;;;;;6.52;39.27;98821.72;5075536;28;20044;-61
2022/04/13 02:14:16;;;;;;;0.90;0.80;;;;;;;6.45;39.13;98828.00;5069168;28;20552;-61
2022/04/13 02:16:42;;;;;;;2.92;1.58;;;;;;;6.35;39.21;98827.56;5053596;28;20037;-63
2022/04/13 02:19:08;;;;;;;1.63;1.40;;;;;;;6.35;39.23;98829.47;5061551;28;20032;-62
2022/04/13 02:21:36;;;;;;;1.45;1.35;;;;;;;6.34;39.27;98823.16;5071177;28;20112;-63
2022/04/13 02:24:02;;;;;;;1.23;1.13;;;;;;;6.40;39.08;98825.03;5072411;28;20040;-60
2022/04/13 02:26:29;;;;;;;4.20;1.63;;;;;;;6.49;39.01;98817.50;5069978;28;20032;-62
2022/04/13 02:28:54;;;;;;;5.45;1.52;;;;;;;6.48;39.00;98815.84;5069370;28;20116;-62
2022/04/13 02:31:20;;;;;;;2.95;1.70;;;;;;;6.48;39.00;98805.75;5071270;28;20134;-62
2022/04/13 02:33:47;;;;;;;3.22;1.05;;;;;;;6.56;38.79;98810.16;5059835;28;20040;-61
2022/04/13 02:36:13;;;;;;;0.80;0.80;;;;;;;6.66;38.69;98807.88;5070034;28;20036;-63
2022/04/13 02:38:38;;;;;;;3.90;1.77;;;;;;;6.74;38.44;98811.44;5071533;28;20407;-61
2022/04/13 02:41:04;;;;;;;2.47;1.30;;;;;;;6.74;38.47;98809.53;5072164;28;20067;-62
2022/04/13 02:43:30;;;;;;;1.67;1.02;;;;;;;6.70;38.63;98818.38;5071958;28;20576;-62
2022/04/13 02:45:57;;;;;;;0.98;0.95;;;;;;;6.73;38.72;98804.28;5071516;28;20178;-61
2022/04/13 02:48:23;;;;;;;1.30;1.17;;;;;;;6.80;38.58;98810.59;5075202;28;20108;-60
2022/04/13 02:51:28;;;;;;;1.08;1.05;;;;;;;6.86;38.47;98811.66;5080647;28;20044;-59
2022/04/13 03:00:41;;;;;;;2.47;1.73;;;;;;;6.83;38.51;98812.91;5058808;28;20886;-61
2022/04/13 03:03:06;;;;;;;1.15;1.05;;;;;;;6.79;38.47;98801.56;5071967;28;20064;-61
2022/04/13 03:05:33;;;;;;;3.05;1.33;;;;;;;6.82;38.48;98806.59;5071176;28;20032;-59
2022/04/13 03:07:59;;;;;;;1.25;1.15;;;;;;;6.88;38.50;98798.66;5071779;28;20082;-65
2022/04/13 03:10:24;;;;;;;3.10;1.08;;;;;;;6.95;38.50;98786.66;5071548;28;20028;-61
2022/04/13 03:12:50;;;;;;;1.75;1.23;;;;;;;7.05;38.31;98805.31;5071421;28;20119;-61
2022/04/13 03:15:18;;;;;;;1.60;1.33;;;;;;;7.10;38.30;98789.16;5071730;28;20036;-60
2022/04/13 03:17:43;;;;;;;5.30;1.20;;;;;;;7.08;38.28;98794.00;5071466;28;20097;-62
2022/04/13 03:20:10;;;;;;;0.65;0.65;;;;;;;6.99;38.40;98782.47;5065889;28;20414;-61
2022/04/13 03:22:36;;;;;;;1.38;1.27;;;;;;;6.94;38.50;98782.25;5069838;28;20037;-60
2022/04/13 03:25:03;;;;;;;1.77;0.82;;;;;;;6.94;38.65;98790.44;5073435;28;20036;-60
2022/04/13 03:28:08;;;;;;;1.17;1.08;;;;;;;7.07;38.33;98792.31;5079581;28;20034;-62
2022/04/13 03:30:34;;;;;;;1.15;1.08;;;;;;;7.06;38.20;98785.16;5078770;28;20036;-60
2022/04/13 03:32:59;;;;;;;4.25;1.15;;;;;;;6.97;38.43;98775.53;5080373;28;20402;-61
2022/04/13 03:35:25;;;;;;;2.33;1.65;;;;;;;6.84;38.75;98770.91;5069191;28;20040;-63
2022/04/13 03:37:51;;;;;;;0.75;0.75;;;;;;;6.75;38.86;98764.00;5070080;28;20066;-61
2022/04/13 03:40:16;;;;;;;0.63;0.63;;;;;;;6.73;39.01;98763.38;5074205;28;20537;-62
2022/04/13 03:42:42;;;;;;;4.57;1.60;;;;;;;6.79;38.73;98768.81;5075091;28;20037;-60
2022/04/13 03:45:13;;;;;;;4.13;2.15;;;;;;;6.86;38.64;98768.84;5075267;28;20040;-64
2022/04/13 03:47:41;;;;;;;2.20;1.35;;;;;;;6.93;38.42;98774.28;5075124;28;20017;-62
2022/04/13 03:50:08;;;;;;;1.33;1.08;;;;;;;7.08;38.38;98769.44;5075236;28;20111;-62
2022/04/13 03:52:35;;;;;;;1.02;1.02;;;;;;;7.28;38.15;98774.81;5074694;28;20115;-61
2022/04/13 03:55:04;;;;;;;1.45;1.13;;;;;;;7.36;37.97;98781.94;5074715;28;20041;-62
2022/04/13 03:57:29;;;;;;;1.13;1.10;;;;;;;7.44;37.91;98786.34;5075099;28;20035;-60
2022/04/13 03:59:56;;;;;;;1.38;1.27;;;;;;;7.66;37.71;98787.72;5075320;28;20490;-61
2022/04/13 04:02:21;;;;;;;0.60;0.60;;;;;;;7.84;37.51;98795.19;5075168;28;20038;-61
2022/04/13 04:04:47;;;;;;;1.08;1.02;;;;;;;7.95;37.43;98796.44;5074971;28;20538;-60
2022/04/13 04:07:13;;;;;;;1.05;1.02;;;;;;;8.13;37.33;98795.69;5074779;28;20032;-61
2022/04/13 04:09:38;;;;;;;2.40;1.27;;;;;;;8.42;36.85;98790.66;5075022;28;20078;-60
2022/04/13 04:12:05;;;;;;;0.98;0.98;;;;;;;8.94;36.33;98790.50;5074871;28;20039;-63
2022/04/13 04:14:31;;;;;;;2.40;1.92;;;;;;;9.92;34.99;98786.03;5074748;28;20109;-61
2022/04/13 04:16:56;;;;;;;4.00;1.88;;;;;;;11.03;33.88;98784.78;5074698;28;20486;-61
2022/04/13 04:19:22;;;;;;;0.50;0.50;;;;;;;13.35;31.33;98776.25;5074424;28;20036;-62
2022/04/13 04:21:48;;;;;;;0.60;0.60;;;;;;;15.41;29.25;98768.16;5074554;28;20119;-61
2022/04/13 04:24:14;;;;;;;1.35;1.27;;;;;;;15.98;29.17;98770.38;5075015;28;20504;-60
2022/04/13 04:26:40;;;;;;;6.20;1.40;;;;;;;16.53;28.99;98766.06;5074289;28;20028;-63
2022/04/13 04:29:06;;;;;;;2.88;1.80;;;;;;;16.48;29.38;98756.94;5074429;28;20111;-62
2022/04/13 04:31:50;;;;;;;3.35;2.00;;;;;;;15.70;30.82;98780.75;5073732;28;20532;-60
2022/04/13 04:34:19;;;;;;;4.15;2.03;;;;;;;14.79;31.99;98755.81;5074202;28;20512;-62
2022/04/13 04:36:45;;;;;;;1.13;1.02;;;;;;;14.42;33.03;98764.84;5073879;28;20048;-62
2022/04/13 04:39:11;;;;;;;1.65;1.55;;;;;;;14.16;33.32;98769.28;5074413;28;20048;-60
2022/04/13 04:41:38;;;;;;;1.92;1.63;;;;;;;13.90;33.77;98780.03;5073653;28;20067;-62
2022/04/13 04:44:04;;;;;;;1.55;1.45;;;;;;;14.04;33.30;98768.59;5074110;28;20079;-64
2022/04/13 04:46:30;;;;;;;1.75;1.20;;;;;;;14.16;33.06;98783.06;5073697;28;20109;-61
2022/04/13 04:48:56;;;;;;;1.98;1.58;;;;;;;13.71;33.92;98773.19;5067260;28;20483;-61
2022/04/13 04:51:22;;;;;;;4.95;3.28;;;;;;;13.18;34.66;98756.16;5060384;28;20098;-60
2022/04/13 04:53:48;;;;;;;3.55;1.77;;;;;;;12.95;34.85;98771.78;5052984;28;20078;-61
2022/04/13 04:56:15;;;;;;;2.20;1.67;;;;;;;12.50;35.27;98757.00;5053175;28;20033;-60
2022/04/13 04:58:40;;;;;;;1.98;1.25;;;;;;;12.37;35.42;98760.91;5052919;28;20037;-61
2022/04/13 05:01:06;;;;;;;2.75;1.48;;;;;;;12.29;35.20;98763.22;5053312;28;20079;-60
2022/04/13 05:03:33;;;;;;;1.75;1.65;;;;;;;12.06;35.39;98749.31;5052420;28;20090;-61
2022/04/13 05:05:58;;;;;;;3.38;1.75;;;;;;;11.97;35.44;98760.97;5052436;28;20044;-64
2022/04/13 05:08:25;;;;;;;6.07;2.58;;;;;;;11.75;35.69;98764.38;5052773;28;20033;-61
2022/04/13 05:10:53;;;;;;;5.85;1.80;;;;;;;11.72;35.45;98759.34;5052783;28;20060;-61
2022/04/13 05:13:20;;;;;;;4.60;1.35;;;;;;;11.67;35.29;98756.50;5052632;28;20033;-62
2022/04/13 05:15:47;;;;;;;1.70;1.52;;;;;;;11.59;35.56;98743.97;5051414;28;20041;-62
2022/04/13 05:18:13;;;;;;;2.05;1.85;;;;;;;11.53;35.43;98737.50;5052442;28;20033;-63
2022/04/13 05:20:40;;;;;;;1.70;1.60;;;;;;;11.43;35.55;98730.97;5052344;28;20032;-60
2022/04/13 05:23:06;;;;;;;3.60;2.08;;;;;;;11.29;35.67;98728.50;5057454;28;20090;-62
2022/04/13 05:25:32;;;;;;;2.97;2.42;;;;;;;11.26;35.76;98734.44;5072311;28;20484;-60
2022/04/13 05:27:59;;;;;;;1.75;1.65;;;;;;;11.23;35.56;98734.94;5072078;28;20086;-61
2022/04/13 05:30:24;;;;;;;2.30;2.15;;;;;;;11.24;35.47;98736.63;5072059;28;20041;-60
2022/04/13 05:32:58;;;;;;;1.70;1.40;;;;;;;11.48;34.91;98725.56;5071935;28;20456;-59
2022/04/13 05:35:25;;;;;;;1.25;1.10;;;;;;;11.70;34.34;98723.84;5071996;28;20087;-61
2022/04/13 05:37:52;;;;;;;1.88;1.45;;;;;;;11.95;34.28;98713.59;5071977;28;20023;-61
2022/04/13 05:40:18;;;;;;;2.65;2.17;;;;;;;12.25;33.51;98714.16;5071976;28;20119;-60
2022/04/13 05:42:43;;;;;;;4.40;2.50;;;;;;;12.59;33.13;98703.16;5071957;28;20115;-59
2022/04/13 05:45:10;;;;;;;5.60;2.38;;;;;;;12.76;32.97;98702.31;5071733;28;20120;-62
2022/04/13 05:47:37;;;;;;;4.57;2.60;;;;;;;12.80;33.28;98697.97;5071938;28;20086;-60
2022/04/13 05:50:03;;;;;;;4.82;1.65;;;;;;;12.69;33.42;98690.63;5063187;28;20036;-60
2022/04/13 05:52:29;;;;;;;2.00;1.77;;;;;;;12.53;33.59;98695.91;5051886;28;20063;-61
2022/04/13 05:54:54;;;;;;;1.70;1.60;;;;;;;12.52;33.65;98699.75;5051763;28;20028;-59
2022/04/13 05:57:20;;;;;;;1.95;1.80;;;;;;;12.62;33.57;98701.84;5051771;28;20033;-59
2022/04/13 05:59:46;;;;;;;1.67;1.58;;;;;;;12.86;33.25;98694.22;5051620;28;20040;-60
2022/04/13 06:02:11;;;;;;;4.40;1.60;;;;;;;13.11;32.91;98695.66;5050815;28;20449;-61
2022/04/13 06:04:37;;;;;;;2.75;2.17;;;;;;;13.14;32.93;98703.44;5051417;28;20037;-60
2022/04/13 06:07:03;;;;;;;1.42;1.33;;;;;;;12.98;33.08;98696.84;5051466;28;20411;-60
2022/04/13 06:09:29;;;;;;;1.73;1.63;;;;;;;12.84;33.38;98693.63;5051449;28;20155;-60
2022/04/13 06:11:54;;;;;;;3.28;2.33;;;;;;;12.68;33.43;98700.00;5052177;28;20037;-61
2022/04/13 06:14:20;;;;;;;5.95;2.60;;;;;;;12.65;33.79;98689.47;5051338;28;20041;-61
2022/04/13 06:16:46;;;;;;;2.88;2.55;;;;;;;12.59;33.90;98697.66;5051452;28;20040;-62
2022/04/13 06:19:12;;;;;;;4.00;1.38;;;;;;;12.65;33.61;98684.81;5051325;28;20052;-63
2022/04/13 06:21:37;;;;;;;3.30;2.10;;;;;;;12.80;33.28;98679.50;5048944;28;20033;-64
2022/04/13 06:24:03;;;;;;;1.58;1.40;;;;;;;13.18;32.71;98676.19;5050850;28;20059;-62
2022/04/13 06:26:29;;;;;;;2.30;1.92;;;;;;;13.75;31.88;98680.50;5050825;28;20147;-61
2022/04/13 06:28:55;;;;;;;1.98;1.85;;;;;;;13.88;31.89;98669.03;5051072;28;20557;-61
2022/04/13 06:31:20;;;;;;;2.95;1.95;;;;;;;13.70;32.12;98656.44;5049892;28;20202;-61
2022/04/13 06:33:47;;;;;;;3.03;1.75;;;;;;;13.43;32.63;98662.75;5049230;28;20045;-60
2022/04/13 06:36:13;;;;;;;1.58;1.42;;;;;;;13.28;32.83;98655.09;5050494;28;20044;-60
2022/04/13 06:38:40;;;;;;;1.70;1.40;;;;;;;13.17;33.09;98652.47;5050765;28;20033;-61
2022/04/13 06:41:12;;;;;;;4.53;3.22;;;;;;;13.01;33.45;98638.47;5050392;28;20131;-61
2022/04/13 06:43:38;;;;;;;2.45;2.25;;;;;;;13.02;33.27;98631.06;5050404;28;20037;-61
2022/04/13 06:46:04;;;;;;;3.03;2.13;;;;;;;13.01;33.00;98627.44;5050421;28;20043;-60
2022/04/13 06:48:30;;;;;;;1.92;1.40;;;;;;;12.99;33.23;98632.38;5050692;28;20495;-60
2022/04/13 06:50:56;;;;;;;4.28;2.10;;;;;;;12.88;33.12;98645.19;5050962;28;20041;-60
2022/04/13 06:53:22;;;;;;;1.17;1.13;;;;;;;12.75;33.37;98631.75;5051039;28;20037;-59
2022/04/13 06:55:48;;;;;;;4.13;2.05;;;;;;;12.71;33.50;98641.66;5050689;28;20033;-60
2022/04/13 06:58:16;;;;;;;4.53;3.28;;;;;;;12.52;33.69;98630.06;5051512;28;20037;-62
2022/04/13 07:00:42;;;;;;;2.20;1.80;;;;;;;12.48;33.46;98631.66;5051694;28;20033;-60
2022/04/13 07:03:09;;;;;;;3.30;2.30;;;;;;;12.67;33.21;98618.44;5052117;28;20024;-61
2022/04/13 07:05:35;;;;;;;3.08;2.00;;;;;;;12.73;33.16;98625.69;5051285;28;20060;-61
2022/04/13 07:08:02;;;;;;;3.35;2.45;;;;;;;12.65;32.99;98623.34;5051475;28;20045;-61
2022/04/13 07:10:30;;;;;;;1.70;1.60;;;;;;;12.57;33.35;98622.72;5051600;28;20044;-59
2022/04/13 07:12:56;;;;;;;1.83;1.73;;;;;;;12.64;33.08;98621.69;5052895;28;20037;-60
2022/04/13 07:15:22;;;;;;;8.00;1.92;;;;;;;12.76;32.83;98604.00;5055818;28;20056;-65
2022/04/13 07:17:48;;;;;;;3.13;1.73;;;;;;;12.97;32.54;98602.34;5055736;28;20060;-62
2022/04/13 07:20:14;;;;;;;1.38;1.02;;;;;;;13.18;32.08;98599.84;5056000;28;20037;-61
2022/04/13 07:22:43;;;;;;;1.70;1.52;;;;;;;13.38;31.81;98598.44;5057246;28;20033;-62
2022/04/13 07:25:09;;;;;;;2.58;1.65;;;;;;;13.50;31.94;98607.41;5075529;28;20047;-61
2022/04/13 07:27:35;;;;;;;2.60;2.38;;;;;;;13.61;31.65;98605.59;5075657;28;20040;-63
2022/04/13 07:30:00;;;;;;;1.17;0.88;;;;;;;13.70;31.77;98589.41;5075296;28;20059;-61
2022/04/13 07:32:26;;;;;;;1.60;1.50;;;;;;;13.92;31.41;98592.91;5075595;28;20036;-61
2022/04/13 07:34:51;;;;;;;7.28;1.95;;;;;;;14.25;31.15;98587.38;5076567;28;20036;-60
2022/04/13 07:37:17;;;;;;;2.90;1.95;;;;;;;14.38;31.17;98581.41;5074707;28;20044;-62
2022/04/13 07:39:43;;;;;;;5.22;1.67;;;;;;;14.44;31.09;98585.03;5075294;28;20127;-61
2022/04/13 07:42:08;;;;;;;1.48;1.38;;;;;;;14.33;31.31;98568.38;5075344;28;20035;-65
2022/04/13 07:44:34;;;;;;;1.02;1.02;;;;;;;14.24;31.41;98561.69;5074773;28;20048;-64
2022/04/13 07:47:00;;;;;;;2.92;1.67;;;;;;;14.26;31.30;98565.00;5075364;28;20033;-63
2022/04/13 07:49:25;;;;;;;1.58;1.25;;;;;;;14.40;30.88;98543.31;5075756;28;20028;-63
2022/04/13 07:51:51;;;;;;;4.70;1.90;;;;;;;14.66;30.99;98544.31;5075175;28;20483;-65
2022/04/13 07:54:17;;;;;;;1.95;1.77;;;;;;;14.80;30.58;98547.41;5075208;28;20115;-65
2022/04/13 07:56:43;;;;;;;1.70;1.45;;;;;;;14.88;30.78;98557.97;5075287;28;20052;-63
2022/04/13 07:59:08;;;;;;;3.60;2.38;;;;;;;14.95;30.79;98535.59;5075006;28;20033;-66
2022/04/13 08:01:34;;;;;;;1.45;1.40;;;;;;;15.00;30.71;98529.25;5074041;28;20028;-63
2022/04/13 08:04:01;;;;;;;1.75;1.15;;;;;;;15.08;30.75;98548.09;5074976;28;20115;-65
2022/04/13 08:06:26;;;;;;;2.05;1.52;;;;;;;15.02;30.73;98533.41;5074469;28;20043;-63
2022/04/13 08:08:52;;;;;;;4.28;2.00;;;;;;;15.17;30.25;98526.28;5075030;28;20386;-64
2022/04/13 08:11:18;;;;;;;1.45;1.35;;;;;;;15.15;30.29;98511.88;5073452;28;20089;-63
2022/04/13 08:13:44;;;;;;;2.78;1.17;;;;;;;15.08;30.49;98514.91;5075004;28;20522;-63
2022/04/13 08:16:49;;;;;;;2.00;1.75;;;;;;;15.07;30.23;98507.72;5075093;28;20051;-62
2022/04/13 08:19:35;;;;;;;;;;;;;;;15.10;30.36;98501.63;5074070;28;20047;-62
2022/04/13 08:26:07;;;;;;;2.47;1.27;;;;;;;15.26;30.31;98510.00;5072593;28;20043;-61
2022/04/13 08:28:52;;;;;;;;;;;;;;;15.22;30.15;98517.97;5075100;28;20079;-64
2022/04/13 08:35:21;;;;;;;3.28;2.05;;;;;;;15.01;30.61;98506.03;5071507;28;20131;-62
2022/04/13 08:41:14;;;;;;;3.92;1.45;;;;;;;14.76;30.56;98501.25;5074230;28;20159;-63
2022/04/13 08:44:28;;;;;;;2.60;1.13;;;;;;;14.60;30.86;98498.38;5074764;28;20091;-62
2022/04/13 08:47:33;;;;;;;2.78;1.73;;;;;;;14.55;31.10;98503.88;5072491;28;20329;-62
2022/04/13 08:50:19;;;;;;;;;;;;;;;14.34;31.30;98528.63;5073478;28;20033;-63
2022/04/13 08:53:24;;;;;;;2.00;1.88;;;;;;;14.09;31.15;98531.19;5074151;28;19916;-62
2022/04/13 08:56:29;;;;;;;1.92;1.77;;;;;;;13.75;31.80;98531.47;5071227;28;20098;-65
2022/04/13 08:59:32;;;;;;;0.85;0.85;;;;;;;13.67;31.85;98528.09;5074242;28;20399;-65
2022/04/13 09:02:58;;;;;;;19.35;2.03;;;;;;;13.68;31.72;98534.47;5074394;28;20093;-63
2022/04/13 09:09:34;;;;;;;3.95;1.65;;;;;;;13.84;31.46;98532.69;5074064;28;20075;-63
2022/04/13 09:19:25;;;;;;;3.05;2.17;;;;;;;13.26;31.77;98524.09;5070537;28;20123;-62
2022/04/13 09:22:11;;;;;;;;;;;;;;;13.19;31.92;98526.22;5070878;28;20475;-60
2022/04/13 09:25:16;;;;;;;1.15;1.10;;;;;;;13.28;31.82;98521.91;5072693;28;19923;-63
2022/04/13 09:28:01;;;;;;;;;;;;;;;13.27;31.63;98528.53;5073216;28;20033;-60
2022/04/13 09:34:30;;;;;;;4.47;1.33;;;;;;;13.47;31.69;98523.25;5062495;28;20059;-64
2022/04/13 09:37:15;;;;;;;;;;;;;;;13.58;31.38;98513.13;5051870;28;20036;-61
2022/04/13 09:43:24;;;;;;;2.30;1.73;;;;;;;13.92;30.88;98518.38;5051793;28;20056;-63
2022/04/13 09:49:55;;;;;;;2.05;1.42;;;;;;;14.24;30.78;98512.00;5051721;28;20132;-64
2022/04/13 10:06:52;;;;;;;2.17;1.55;;;;;;;13.53;31.77;98502.06;5051366;28;20103;-63
2022/04/13 10:13:28;;;;;;;1.98;1.77;;;;;;;13.64;31.16;98503.81;5051348;28;20117;-64
2022/04/13 10:23:38;;;;;;;2.35;1.48;;;;;;;13.49;31.62;98490.72;5069967;28;20043;-62
2022/04/13 10:26:10;;;;;;;1.75;1.65;;;;;;;13.48;31.47;98480.75;5067789;28;20037;-61
2022/04/13 10:28:46;;;;;;;4.70;2.00;;;;;;;13.56;31.66;98487.75;5069984;28;20092;-59
2022/04/13 10:31:12;;;;;;;1.83;1.38;;;;;;;13.68;31.32;98498.59;5072613;28;20036;-63
2022/04/13 10:33:52;;;;;;;2.08;1.20;;;;;;;13.79;31.06;98488.47;5089151;28;20390;-60
2022/04/13 10:36:18;;;;;;;5.18;1.30;;;;;;;13.95;31.04;98490.25;5074411;28;20437;-60
2022/04/13 10:38:45;;;;;;;0.93;0.88;;;;;;;14.07;31.16;98505.81;5069814;28;20042;-61
2022/04/13 10:41:16;;;;;;;1.65;1.55;;;;;;;13.93;31.30;98505.44;5070236;28;20057;-60
2022/04/13 10:43:47;;;;;;;2.20;2.00;;;;;;;13.66;31.63;98503.53;5070302;28;20467;-61
2022/04/13 10:46:14;;;;;;;2.13;1.25;;;;;;;13.57;31.50;98502.38;5070898;28;20036;-62
2022/04/13 10:48:45;;;;;;;3.53;1.63;;;;;;;13.52;31.96;98497.63;5070169;28;20060;-62
2022/04/13 10:51:13;;;;;;;2.50;2.13;;;;;;;13.59;31.75;98508.44;5070640;28;20037;-62
2022/04/13 10:53:50;;;;;;;1.77;1.23;;;;;;;13.74;31.21;98493.97;5070867;28;20032;-60
2022/04/13 10:56:20;;;;;;;1.90;1.48;;;;;;;13.81;31.50;98491.81;5070628;28;20032;-60
2022/04/13 10:59:03;;;;;;;1.13;1.02;;;;;;;13.84;31.23;98480.25;5056793;28;20036;-62
2022/04/13 11:01:36;;;;;;;3.42;1.40;;;;;;;13.83;31.35;98475.81;5069563;28;20775;-62
2022/04/13 11:04:02;;;;;;;2.47;1.48;;;;;;;13.90;31.55;98476.44;5069128;28;20033;-61
2022/04/13 11:06:29;;;;;;;1.15;0.63;;;;;;;13.75;31.37;98479.06;5069813;28;20321;-60
2022/04/13 11:09:03;;;;;;;1.75;1.15;;;;;;;13.66;31.70;98487.84;5070788;28;20183;-61
2022/04/13 11:11:30;;;;;;;;;;;;;;;13.71;31.64;98491.75;5070960;28;20048;-62
2022/04/13 11:13:55;;;;;;;4.57;2.03;;;;;;;13.78;31.86;98493.19;5069894;28;19982;-59
2022/04/13 11:16:27;;;;;;;1.35;1.25;;;;;;;13.81;31.69;98495.41;5064717;28;20060;-61
2022/04/13 11:19:05;;;;;;;0.65;0.65;;;;;;;13.70;31.67;98490.06;5057568;28;20539;-60
2022/04/13 11:21:32;;;;;;;1.25;1.08;;;;;;;13.51;32.14;98492.38;5050893;28;20462;-59
2022/04/13 11:23:58;;;;;;;2.08;1.88;;;;;;;13.19;32.27;98491.22;5050572;28;20479;-59
2022/04/13 11:26:36;;;;;;;4.03;1.45;;;;;;;12.96;32.55;98479.41;5050365;28;20444;-59
2022/04/13 11:29:21;;;;;;;2.42;2.03;;;;;;;12.70;32.82;98488.47;5050452;28;20044;-60
2022/04/13 11:32:02;;;;;;;2.25;1.30;;;;;;;12.59;33.16;98485.56;5050505;28;20038;-59
2022/04/13 11:34:28;;;;;;;1.30;1.20;;;;;;;12.49;33.04;98485.44;5050591;28;20106;-60
2022/04/13 11:36:58;;;;;;;1.58;1.05;;;;;;;12.37;33.37;98477.31;5049741;28;20044;-59
2022/04/13 11:39:44;;;;;;;4.07;1.45;;;;;;;12.31;33.19;98469.22;5050198;28;20119;-60
2022/04/13 11:43:01;;;;;;;1.73;1.35;;;;;;;12.22;33.36;98461.41;5050541;28;20036;-61
2022/04/13 11:45:22;;;;;;;1.85;1.40;;;;;;;12.26;33.39;98457.06;5049819;28;20392;-61
2022/04/13 11:47:50;;;;;;;1.20;1.10;;;;;;;12.46;32.95;98452.91;5050186;28;20123;-60
2022/04/13 11:50:19;;;;;;;1.15;1.05;;;;;;;12.70;32.46;98460.91;5050125;28;20376;-60
2022/04/13 11:52:55;;;;;;;1.63;1.00;;;;;;;12.89;32.54;98470.50;5050608;28;20038;-64
2022/04/13 11:55:31;;;;;;;0.82;0.80;;;;;;;13.17;31.95;98460.31;5050403;28;20039;-60
2022/04/13 11:58:19;;;;;;;5.15;1.35;;;;;;;13.32;31.70;98462.38;5050152;28;20037;-60
2022/04/13 12:00:57;;;;;;;2.05;1.85;;;;;;;13.38;31.80;98460.53;5052586;28;20048;-62
2022/04/13 12:03:25;;;;;;;1.10;0.90;;;;;;;13.18;31.97;98453.72;5053792;28;20036;-62
2022/04/13 12:05:57;;;;;;;2.13;0.98;;;;;;;13.06;32.29;98464.06;5053244;28;20052;-64
2022/04/13 12:08:29;;;;;;;0.85;0.82;;;;;;;12.75;32.45;98455.44;5053604;28;20056;-63
2022/04/13 12:11:04;;;;;;;3.03;1.02;;;;;;;12.67;32.64;98451.22;5053623;28;20087;-61
2022/04/13 12:13:43;;;;;;;1.17;1.10;;;;;;;12.78;32.61;98442.00;5053381;28;20044;-62
2022/04/13 12:16:11;;;;;;;0.85;0.85;;;;;;;12.91;32.25;98446.28;5053250;28;20033;-60
2022/04/13 12:18:38;;;;;;;2.55;0.77;;;;;;;12.91;32.10;98450.94;5052526;28;20032;-62
2022/04/13 12:21:16;;;;;;;0.32;0.32;;;;;;;12.74;32.43;98442.78;5053433;28;20040;-64
2022/04/13 12:23:43;;;;;;;1.48;1.13;;;;;;;12.52;32.82;98434.53;5053007;28;20705;-62
2022/04/13 12:26:09;;;;;;;1.33;1.23;;;;;;;12.43;32.87;98436.91;5051251;28;20033;-62
2022/04/13 12:28:36;;;;;;;0.50;0.50;;;;;;;12.30;33.17;98443.63;5051979;28;20040;-62
2022/04/13 12:31:03;;;;;;;1.83;1.50;;;;;;;12.05;33.49;98441.34;5048325;28;20131;-62
2022/04/13 12:33:30;;;;;;;2.55;1.85;;;;;;;11.92;33.32;98440.63;5051178;28;20052;-61
2022/04/13 12:36:10;;;;;;;1.90;1.45;;;;;;;11.82;33.64;98429.47;5047958;28;20079;-60
2022/04/13 12:38:49;;;;;;;0.80;0.80;;;;;;;11.74;33.71;98427.13;5051898;28;20063;-62
2022/04/13 12:41:18;;;;;;;2.25;1.23;;;;;;;11.63;33.83;98419.78;5053061;28;20053;-62
2022/04/13 12:44:04;;;;;;;1.65;1.50;;;;;;;11.67;33.51;98427.28;5050989;28;20052;-62
2022/04/13 12:46:33;;;;;;;1.58;1.00;;;;;;;11.66;33.80;98438.53;5051996;28;20069;-60
2022/04/13 12:49:02;;;;;;;4.25;3.50;;;;;;;11.62;33.77;98429.16;5054009;28;20037;-62
2022/04/13 12:51:38;;;;;;;1.30;1.20;;;;;;;11.66;33.54;98430.28;5053491;28;20056;-62
2022/04/13 12:54:08;;;;;;;1.92;0.82;;;;;;;11.74;33.43;98424.38;5052005;28;20427;-64
2022/04/13 12:56:46;;;;;;;1.65;1.55;;;;;;;11.82;33.27;98425.84;5071351;28;20036;-64
2022/04/13 12:59:23;;;;;;;2.33;2.10;;;;;;;11.75;33.56;98428.81;5073120;28;20024;-66